This is the latest recevied weather packets stored in our database for station/object UA1CAS-13. If no packets are shown the sender has not sent any weather packets the latest 10 day(s).
| Time | Temp. | Humidity | Pressure | Rain* | Wind** | Luminosity | Snow |
|---|---|---|---|---|---|---|---|
| 1777810338 | 15.56° C | 71% | 1004 hPa | - | - | - | - |
| 1777809437 | 15° C | 72% | 1004 hPa | - | - | - | - |
| 1777808535 | 14.44° C | 74% | 1004 hPa | - | - | - | - |
| 1777807634 | 15° C | 74% | 1004 hPa | - | - | - | - |
| 1777806733 | 15° C | 76% | 1004 hPa | - | - | - | - |
| 1777805832 | 13.89° C | 77% | 1004 hPa | - | - | - | - |
| 1777804931 | 13.89° C | 77% | 1004 hPa | - | - | - | - |
| 1777804030 | 13.89° C | 72% | 1004 hPa | - | - | - | - |
| 1777803129 | 16.11° C | 62% | 1004 hPa | - | - | - | - |
| 1777802228 | 17.22° C | 56% | 1003 hPa | - | - | - | - |
| 1777801327 | 17.78° C | 55% | 1003 hPa | - | - | - | - |
| 1777800426 | 16.67° C | 57% | 1003 hPa | - | - | - | - |
| 1777799525 | 16.67° C | 58% | 1003 hPa | - | - | - | - |
| 1777798624 | 16.67° C | 58% | 1003 hPa | - | - | - | - |
| 1777797722 | 15.56° C | 61% | 1003 hPa | - | - | - | - |
| 1777796820 | 15.56° C | 61% | 1003 hPa | - | - | - | - |
| 1777795919 | 16.11° C | 62% | 1003 hPa | - | - | - | - |
| 1777795018 | 14.44° C | 63% | 1003 hPa | - | - | - | - |
| 1777794117 | 16.11° C | 58% | 1003 hPa | - | - | - | - |
| 1777793216 | 15.56° C | 59% | 1003 hPa | - | - | - | - |
| 1777792315 | 15° C | 61% | 1002 hPa | - | - | - | - |
| 1777791414 | 13.33° C | 66% | 1003 hPa | - | - | - | - |
| 1777789612 | 13.33° C | 65% | 1003 hPa | - | - | - | - |
| 1777788711 | 13.89° C | 63% | 1003 hPa | - | - | - | - |
| 1777787810 | 14.44° C | 64% | 1003 hPa | - | - | - | - |
* Rain since midnight (hover to see other rain measurements)
** Current wind speed in m/s (hover to see current wind gust speed)